Salado, Texas
Current Conditions -  °F | °C
As of 7:15 AM on Saturday 22 Nov 2014 (Local Time) from KILE Reporting Station
Overcast Overcast  
Wind Chill: 64°   Ceiling: 600
Heat Index: 64°   Visibility: 10mi
Dew Point: 57°   Wind: 14mph
Humidity: 77%   Direction: 140°SE
Pressure: 30.02"   Gusts: NA
Location:  30.95°N, 97.54°W
Report Text: KILE 221315Z AUTO 14012KT 10SM OVC006 18/14 A3002 RMK AO1
Loading
Personal Weather Stations






























Interactive Weather Map New forecast layout! Learn more

10-Day Weather Forecast

Advertisements
Track Severe Weather on mobile